Time;durP1;ratioP1;P1;durP2;ratioP2;P2;SDS_P1;SDS_P2;PMS_P1;PMS_P2;Temp;Humidity;BMP_temperature;BMP_pressure;BME280_temperature;BME280_humidity;BME280_pressure;Samples;Min_cycle;Max_cycle;Signal;HPM_P1;HPM_P2
2024/02/21 00:02:09;;;;;;;9.83;4.10;;;7.20;76.90;;;9.09;55.92;98615.00;5031078;28;20052;-48
2024/02/21 00:04:38;;;;;;;11.90;4.87;;;7.20;76.90;;;9.10;55.84;98611.41;5030620;28;20052;-48
2024/02/21 00:07:06;;;;;;;9.40;4.13;;;7.30;77.20;;;9.10;55.55;98618.53;5013033;28;20045;-49
2024/02/21 00:09:34;;;;;;;9.93;4.13;;;7.30;76.50;;;9.06;55.79;98609.97;5031094;28;20061;-46
2024/02/21 00:12:03;;;;;;;10.60;4.93;;;7.20;76.70;;;9.08;55.85;98608.03;5030883;28;20052;-47
2024/02/21 00:14:30;;;;;;;11.03;4.37;;;7.30;76.70;;;9.09;55.87;98601.72;5030801;28;20474;-47
2024/02/21 00:16:58;;;;;;;6.23;3.60;;;7.30;76.70;;;9.11;55.75;98596.28;5030072;28;20049;-47
2024/02/21 00:19:25;;;;;;;11.43;4.30;;;7.40;76.30;;;9.12;55.77;98587.38;5030910;28;20049;-46
2024/02/21 00:21:53;;;;;;;12.17;4.93;;;7.40;75.60;;;9.12;55.27;98582.06;5032265;28;20060;-46
2024/02/21 00:24:21;;;;;;;6.93;3.50;;;7.40;75.90;;;9.14;55.90;98585.41;5030796;28;20519;-49
2024/02/21 00:26:48;;;;;;;9.33;5.10;;;7.40;75.90;;;9.16;55.58;98578.16;5029917;28;20059;-46
2024/02/21 00:29:16;;;;;;;11.40;4.63;;;7.40;75.80;;;9.15;55.46;98571.16;5030613;28;20049;-46
2024/02/21 00:31:44;;;;;;;9.33;4.03;;;7.40;76.10;;;9.14;55.72;98565.00;5030694;28;20064;-46
2024/02/21 00:34:13;;;;;;;7.37;4.20;;;7.40;76.10;;;9.14;55.64;98562.34;5030245;28;20046;-45
2024/02/21 00:36:40;;;;;;;5.13;3.07;;;7.40;76.10;;;9.12;55.45;98551.00;5030126;28;20387;-47
2024/02/21 00:39:08;;;;;;;7.93;4.30;;;7.30;75.80;;;9.11;55.76;98553.78;5033542;28;20033;-49
2024/02/21 00:41:36;;;;;;;9.97;3.90;;;7.30;76.20;;;9.13;55.46;98555.38;5034816;28;20490;-46
2024/02/21 00:44:05;;;;;;;11.20;4.23;;;7.30;76.30;;;9.16;55.73;98551.59;5034473;28;20052;-46
2024/02/21 00:46:33;;;;;;;8.23;3.80;;;7.40;76.10;;;9.20;55.31;98551.19;5033880;28;20046;-46
2024/02/21 00:49:00;;;;;;;11.87;3.13;;;7.40;75.80;;;9.21;55.50;98552.06;5034122;28;20045;-46
2024/02/21 00:51:28;;;;;;;9.53;4.43;;;7.40;75.70;;;9.16;55.33;98549.78;5034543;28;20053;-46
2024/02/21 00:53:56;;;;;;;6.03;3.30;;;7.30;75.50;;;9.16;55.63;98548.94;5031531;28;20045;-46
2024/02/21 00:56:23;;;;;;;10.37;3.07;;;7.30;76.10;;;9.15;55.39;98540.13;5033140;28;20041;-47
2024/02/21 00:58:51;;;;;;;7.73;3.20;;;7.30;76.20;;;9.15;55.57;98544.59;5033927;28;20042;-46
2024/02/21 01:01:26;;;;;;;9.17;4.20;;;7.30;76.10;;;9.14;55.74;98532.28;5032617;28;20053;-46
2024/02/21 01:03:53;;;;;;;8.00;3.97;;;7.30;76.20;;;9.12;55.45;98529.75;5034286;28;20045;-48
2024/02/21 01:06:21;;;;;;;11.70;3.60;;;7.30;76.40;;;9.13;55.61;98527.94;5033798;28;20494;-47
2024/02/21 01:08:49;;;;;;;9.03;3.53;;;7.30;76.60;;;9.13;55.64;98523.50;5040675;28;20107;-46
2024/02/21 01:11:17;;;;;;;8.70;3.30;;;7.30;76.10;;;9.14;55.74;98519.84;5034155;28;20442;-48
2024/02/21 01:13:45;;;;;;;5.57;3.00;;;7.30;76.70;;;9.13;55.56;98520.84;5033992;28;20057;-47
2024/02/21 01:16:12;;;;;;;8.80;3.80;;;7.30;76.60;;;9.13;55.62;98506.69;5033919;28;20041;-49
2024/02/21 01:18:40;;;;;;;9.73;4.03;;;7.30;76.90;;;9.15;55.83;98507.41;5033866;28;20033;-49
2024/02/21 01:21:09;;;;;;;10.97;3.63;;;7.30;76.80;;;9.17;55.64;98505.44;5016121;28;20064;-47
2024/02/21 01:23:37;;;;;;;7.70;3.67;;;7.30;77.00;;;9.14;55.90;98500.41;5034109;28;20050;-48
2024/02/21 01:26:08;;;;;;;8.77;4.10;;;7.30;77.30;;;9.16;55.84;98495.81;5033287;28;20049;-46
2024/02/21 01:28:35;;;;;;;8.23;3.77;;;7.30;77.70;;;9.17;55.80;98490.38;5033618;28;20068;-48
2024/02/21 01:31:03;;;;;;;7.97;3.77;;;7.30;77.50;;;9.18;56.02;98492.03;5033811;28;20053;-48
2024/02/21 01:33:34;;;;;;;11.23;3.93;;;7.30;77.10;;;9.19;56.03;98482.25;5033632;28;20521;-46
2024/02/21 01:36:02;;;;;;;4.97;3.03;;;7.30;77.20;;;9.18;55.95;98481.41;5033222;28;20509;-46
2024/02/21 01:38:31;;;;;;;9.17;3.40;;;7.40;76.90;;;9.18;55.97;98484.06;5033634;28;20041;-48
2024/02/21 01:40:59;;;;;;;10.00;3.60;;;7.30;76.80;;;9.16;55.62;98480.69;5033663;28;20049;-48
2024/02/21 01:43:27;;;;;;;6.73;3.17;;;7.30;76.80;;;9.15;55.80;98479.03;5016064;28;20042;-48
2024/02/21 01:45:57;;;;;;;13.50;3.93;;;7.30;76.80;;;9.12;55.78;98467.81;5016113;28;20419;-46
2024/02/21 01:48:25;;;;;;;6.73;3.47;;;7.30;77.10;;;9.12;55.78;98466.00;5015243;28;20042;-47
2024/02/21 01:50:55;;;;;;;7.60;4.17;;;7.30;76.90;;;9.14;55.88;98465.88;5032793;28;20049;-48
2024/02/21 01:53:30;;;;;;;7.37;3.10;;;7.30;76.60;;;9.15;55.93;98463.09;4999580;28;20042;-49
2024/02/21 01:55:58;;;;;;;5.47;3.30;;;7.30;76.80;;;9.14;55.85;98460.56;5033231;28;20041;-47
2024/02/21 01:58:27;;;;;;;7.27;3.37;;;7.30;76.90;;;9.12;55.76;98452.72;5015283;28;20044;-46
2024/02/21 02:00:56;;;;;;;7.20;3.00;;;7.30;76.50;;;9.12;55.71;98451.88;5015614;28;20044;-49
2024/02/21 02:03:25;;;;;;;9.10;3.30;;;7.30;76.80;;;9.13;55.67;98443.78;5033231;28;20049;-45
2024/02/21 02:05:53;;;;;;;6.67;3.17;;;7.30;76.50;;;9.11;55.78;98443.09;5015669;28;20052;-46
2024/02/21 02:08:24;;;;;;;11.70;3.63;;;7.30;76.70;;;9.13;55.94;98437.63;5032644;28;20429;-50
2024/02/21 02:10:52;;;;;;;5.13;3.20;;;7.30;77.80;;;9.19;56.11;98439.72;5032916;28;20041;-47
2024/02/21 02:13:20;;;;;;;6.03;3.03;;;7.40;76.60;;;9.23;55.95;98431.38;5032821;28;20152;-46
2024/02/21 02:15:49;;;;;;;8.17;3.47;;;7.40;76.70;;;9.26;55.75;98428.44;5032800;28;20072;-46
2024/02/21 02:18:19;;;;;;;5.43;2.80;;;7.50;76.50;;;9.27;55.88;98424.00;5014595;28;20034;-48
2024/02/21 02:20:47;;;;;;;6.33;3.00;;;7.40;76.40;;;9.28;55.77;98423.00;5032904;28;20139;-47
2024/02/21 02:23:31;;;;;;;5.00;3.23;;;7.50;76.50;;;9.28;55.77;98417.69;5024803;28;20038;-46
2024/02/21 02:26:00;;;;;;;5.80;2.90;;;7.50;76.80;;;9.29;55.66;98407.91;5032650;28;20045;-47
2024/02/21 02:28:29;;;;;;;5.67;3.20;;;7.50;77.00;;;9.31;55.93;98398.00;5032360;28;20052;-45
2024/02/21 02:30:56;;;;;;;8.17;3.00;;;7.60;77.20;;;9.33;56.23;98388.91;5032523;28;20053;-46
2024/02/21 02:33:24;;;;;;;7.77;3.90;;;7.60;77.40;;;9.34;56.34;98392.41;5032661;28;20052;-45
2024/02/21 02:35:52;;;;;;;8.00;3.00;;;7.50;78.50;;;9.31;56.43;98379.41;5014602;28;20041;-46
2024/02/21 02:38:19;;;;;;;8.57;4.37;;;7.50;79.00;;;9.25;56.45;98392.22;5032208;28;20296;-49
2024/02/21 02:40:47;;;;;;;7.43;3.23;;;7.40;79.60;;;9.23;56.49;98398.66;5032342;28;20045;-46
2024/02/21 02:43:15;;;;;;;5.23;2.60;;;7.40;79.80;;;9.24;56.85;98409.13;5032004;28;20085;-46
2024/02/21 02:45:42;;;;;;;7.67;3.33;;;7.40;79.60;;;9.21;56.44;98412.06;5032289;28;20068;-45
2024/02/21 02:48:10;;;;;;;6.83;2.57;;;7.40;78.90;;;9.21;56.51;98406.75;5031705;28;20049;-45
2024/02/21 02:50:38;;;;;;;5.40;2.80;;;7.40;78.90;;;9.23;56.49;98402.16;5032347;28;20045;-45
2024/02/21 02:53:05;;;;;;;6.17;2.80;;;7.40;78.90;;;9.21;56.69;98405.94;5032235;28;20053;-46
2024/02/21 02:55:35;;;;;;;9.50;3.23;;;7.40;79.30;;;9.21;56.78;98403.28;5031993;28;20044;-46
2024/02/21 02:58:03;;;;;;;4.63;2.50;;;7.40;79.70;;;9.20;56.83;98396.25;5030740;28;20054;-45
2024/02/21 03:00:30;;;;;;;9.07;3.03;;;7.30;79.80;;;9.18;56.69;98406.19;5031470;28;20410;-46
2024/02/21 03:02:58;;;;;;;7.43;3.10;;;7.30;79.30;;;9.14;56.56;98405.59;5031926;28;20041;-48
2024/02/21 03:05:26;;;;;;;5.60;2.97;;;7.30;79.70;;;9.14;56.85;98402.13;5031966;28;20088;-49
2024/02/21 03:07:54;;;;;;;7.43;2.97;;;7.30;79.80;;;9.13;56.65;98392.44;5031288;28;20053;-46
2024/02/21 03:10:21;;;;;;;9.10;2.73;;;7.30;79.80;;;9.12;56.74;98381.00;5031914;28;20052;-47
2024/02/21 03:12:49;;;;;;;8.27;3.13;;;7.30;79.80;;;9.12;56.84;98383.66;5031874;28;20045;-45
2024/02/21 03:15:16;;;;;;;7.07;3.03;;;7.30;79.60;;;9.12;56.66;98386.31;5031814;28;20419;-47
2024/02/21 03:17:44;;;;;;;5.43;3.30;;;7.30;79.40;;;9.09;56.90;98378.59;5031321;28;20037;-46
2024/02/21 03:20:12;;;;;;;9.43;3.20;;;7.20;79.90;;;9.10;56.72;98360.88;5031788;28;20045;-46
2024/02/21 03:22:40;;;;;;;7.90;2.97;;;7.20;79.70;;;9.05;56.79;98359.44;5031626;28;20054;-46
2024/02/21 03:25:13;;;;;;;7.73;2.97;;;7.20;79.30;;;9.05;56.89;98355.94;5014101;28;20041;-49
2024/02/21 03:27:41;;;;;;;12.73;3.60;;;7.20;79.50;;;9.03;56.93;98366.72;5031280;28;20052;-47
2024/02/21 03:30:09;;;;;;;7.83;3.37;;;7.10;80.00;;;8.99;56.83;98359.97;5031240;28;20041;-48
2024/02/21 03:32:38;;;;;;;5.43;2.47;;;7.10;80.20;;;8.97;56.93;98358.44;5031398;28;20044;-46
2024/02/21 03:35:06;;;;;;;9.50;4.20;;;7.10;80.50;;;8.92;57.24;98356.19;5031241;28;20048;-45
2024/02/21 03:37:34;;;;;;;7.00;2.80;;;7.00;80.90;;;8.87;57.43;98350.41;5030604;28;20048;-46
2024/02/21 03:40:02;;;;;;;8.37;3.10;;;6.90;81.50;;;8.84;57.42;98355.97;5031029;28;20050;-46
2024/02/21 03:42:31;;;;;;;6.43;2.80;;;7.00;81.80;;;8.87;57.46;98358.38;5031322;28;20407;-46
2024/02/21 03:44:59;;;;;;;6.23;3.00;;;7.00;81.30;;;8.91;57.41;98358.97;5030812;28;20045;-46
2024/02/21 03:47:26;;;;;;;5.77;2.97;;;7.10;80.70;;;8.90;57.26;98350.16;5030867;28;20045;-46
2024/02/21 03:49:54;;;;;;;10.00;4.33;;;7.00;80.50;;;8.87;57.18;98339.81;5031012;28;20418;-46
2024/02/21 03:52:22;;;;;;;11.10;3.33;;;7.00;80.20;;;8.84;57.33;98324.97;5023030;28;20045;-46
2024/02/21 03:54:50;;;;;;;7.17;3.10;;;7.00;80.50;;;8.82;57.33;98334.03;5029195;28;20049;-45
2024/02/21 03:57:17;;;;;;;5.13;3.33;;;6.90;80.60;;;8.79;57.41;98329.00;5029545;28;20056;-48
2024/02/21 03:59:45;;;;;;;7.63;2.80;;;6.90;81.00;;;8.75;57.08;98335.56;5030656;28;20052;-47
2024/02/21 04:02:12;;;;;;;5.40;2.77;;;6.80;80.70;;;8.73;57.13;98332.19;5030881;28;20048;-49
2024/02/21 04:04:46;;;;;;;7.40;2.67;;;6.80;81.10;;;8.70;56.99;98325.31;5030909;28;20037;-46
2024/02/21 04:07:14;;;;;;;10.52;3.55;;;6.80;80.90;;;8.64;57.56;98325.84;5030312;28;20049;-46
2024/02/21 04:09:42;;;;;;;7.20;2.80;;;6.70;81.30;;;8.62;57.50;98319.84;5030977;28;20038;-45
2024/02/21 04:12:10;;;;;;;7.50;2.50;;;6.70;81.50;;;8.58;57.49;98289.22;5030186;28;20046;-49
2024/02/21 04:14:39;;;;;;;6.17;3.47;;;6.60;81.40;;;8.53;57.53;98284.34;5037190;28;20049;-46
2024/02/21 04:17:09;;;;;;;7.80;3.80;;;6.60;81.70;;;8.50;57.69;98291.72;5030238;28;20769;-46
2024/02/21 04:19:36;;;;;;;6.57;2.33;;;6.60;81.90;;;8.48;57.69;98297.16;5030602;28;20053;-46
2024/02/21 04:22:04;;;;;;;6.20;2.80;;;6.60;81.90;;;8.45;57.71;98308.88;5030689;28;20037;-46
2024/02/21 04:24:32;;;;;;;6.03;3.27;;;6.60;81.50;;;8.42;57.90;98300.34;5030718;28;20042;-45
2024/02/21 04:26:59;;;;;;;8.53;3.33;;;6.60;81.20;;;8.42;57.78;98303.00;5030026;28;20071;-45
2024/02/21 04:29:27;;;;;;;6.30;2.57;;;6.70;81.30;;;8.43;57.81;98291.38;5030531;28;20502;-47
2024/02/21 04:31:55;;;;;;;7.13;2.73;;;6.70;81.20;;;8.45;57.86;98290.31;5030657;28;20160;-46
2024/02/21 04:34:23;;;;;;;5.60;2.73;;;6.70;80.30;;;8.45;57.51;98297.41;5013163;28;20048;-45
2024/02/21 04:36:51;;;;;;;9.37;2.90;;;6.70;80.30;;;8.44;57.54;98309.00;5030059;28;20045;-46
2024/02/21 04:39:19;;;;;;;6.73;2.87;;;6.70;80.30;;;8.41;57.45;98303.91;5030240;28;20041;-46
2024/02/21 04:41:46;;;;;;;4.93;2.83;;;6.70;80.20;;;8.42;57.72;98301.16;5030679;28;20068;-47
2024/02/21 04:44:14;;;;;;;6.30;2.83;;;6.70;80.40;;;8.43;57.66;98304.66;5029718;28;20503;-48
2024/02/21 04:46:44;;;;;;;5.10;2.50;;;6.60;80.20;;;8.39;57.63;98305.84;5030303;28;20402;-47
2024/02/21 04:49:12;;;;;;;4.83;2.77;;;6.60;80.90;;;8.39;57.73;98300.56;5030421;28;20045;-45
2024/02/21 04:51:41;;;;;;;8.60;3.10;;;6.60;80.80;;;8.37;57.82;98305.16;5030462;28;20046;-45
2024/02/21 04:54:08;;;;;;;5.57;2.90;;;6.60;80.40;;;8.35;57.65;98307.09;5030202;28;20050;-46
2024/02/21 04:56:36;;;;;;;8.80;3.13;;;6.60;80.70;;;8.35;57.71;98299.13;4995840;28;20518;-45
2024/02/21 04:59:03;;;;;;;7.03;2.73;;;6.60;80.90;;;8.35;57.73;98302.63;5029598;28;20056;-44
2024/02/21 05:01:32;;;;;;;5.23;2.57;;;6.60;80.50;;;8.33;57.79;98295.78;5030568;28;20042;-45
2024/02/21 05:03:59;;;;;;;8.10;3.77;;;6.60;80.10;;;8.32;57.65;98288.78;5030201;28;20049;-45
2024/02/21 05:06:27;;;;;;;4.17;3.20;;;6.50;80.80;;;8.29;57.44;98288.06;5029972;28;20525;-44
2024/02/21 05:08:55;;;;;;;6.40;3.00;;;6.50;80.50;;;8.27;57.79;98276.75;5030008;28;20426;-45
2024/02/21 05:11:22;;;;;;;7.07;3.03;;;6.50;80.60;;;8.23;57.97;98291.25;5030175;28;20061;-46
2024/02/21 05:13:50;;;;;;;9.20;3.73;;;6.50;80.60;;;8.27;57.89;98281.22;5012476;28;20052;-46
2024/02/21 05:16:19;;;;;;;4.53;2.33;;;6.60;80.50;;;8.29;57.84;98277.47;5028522;28;20046;-49
2024/02/21 05:18:47;;;;;;;8.27;2.97;;;6.60;80.20;;;8.34;58.29;98265.63;5030190;28;20042;-47
2024/02/21 05:21:14;;;;;;;4.77;2.60;;;6.60;80.20;;;8.37;57.61;98254.75;5012345;28;20068;-48
2024/02/21 05:23:42;;;;;;;6.93;3.90;;;6.70;79.60;;;8.32;57.58;98255.16;5030745;28;20045;-48
2024/02/21 05:26:10;;;;;;;5.03;2.53;;;6.60;80.00;;;8.27;57.62;98247.56;5033484;28;20053;-46
2024/02/21 05:28:37;;;;;;;6.90;2.27;;;6.50;80.60;;;8.28;57.72;98240.47;5033573;28;20049;-46
2024/02/21 05:31:05;;;;;;;6.90;2.70;;;6.50;80.20;;;8.25;58.16;98236.25;5033204;28;20104;-45
2024/02/21 05:33:33;;;;;;;7.00;3.37;;;6.40;80.30;;;8.24;57.88;98228.44;5025905;28;20044;-49
2024/02/21 05:36:01;;;;;;;10.07;3.00;;;6.40;80.50;;;8.24;57.81;98226.63;5033652;28;20682;-45
2024/02/21 05:38:28;;;;;;;5.73;2.40;;;6.40;80.50;;;8.24;57.64;98225.78;5032933;28;20521;-46
2024/02/21 05:40:57;;;;;;;6.97;2.90;;;6.50;80.20;;;8.30;57.53;98230.56;5033617;28;20493;-49
2024/02/21 05:43:24;;;;;;;7.80;2.87;;;6.60;80.10;;;8.30;57.49;98225.25;5033408;28;20046;-47
2024/02/21 05:45:52;;;;;;;4.57;2.43;;;6.60;79.30;;;8.31;57.32;98218.97;5033783;28;20046;-48
2024/02/21 05:48:21;;;;;;;8.00;2.93;;;6.60;79.30;;;8.34;57.54;98231.97;5033303;28;20049;-47
2024/02/21 05:50:49;;;;;;;4.17;2.33;;;6.60;79.00;;;8.37;57.39;98236.16;5033360;28;20413;-51
2024/02/21 05:53:17;;;;;;;3.87;2.47;;;6.60;78.30;;;8.36;57.21;98232.69;5033409;28;20498;-47
2024/02/21 05:55:45;;;;;;;8.83;3.53;;;6.70;78.30;;;8.36;56.88;98231.84;5015551;28;20053;-46
2024/02/21 05:58:13;;;;;;;6.53;2.80;;;6.60;78.00;;;8.35;56.92;98238.94;5031963;28;20045;-47
2024/02/21 06:00:41;;;;;;;5.70;2.83;;;6.60;77.80;;;8.32;57.02;98233.94;5033777;28;20038;-46
2024/02/21 06:03:08;;;;;;;6.50;2.50;;;6.60;77.50;;;8.34;57.15;98233.81;5015726;28;20517;-49
2024/02/21 06:05:40;;;;;;;7.07;3.10;;;6.60;78.20;;;8.30;56.98;98227.91;5033267;28;20045;-46
2024/02/21 06:08:08;;;;;;;6.53;2.70;;;6.60;78.20;;;8.28;57.01;98208.63;5015219;28;20048;-47
2024/02/21 06:10:36;;;;;;;7.93;2.30;;;6.50;78.20;;;8.25;56.88;98223.00;5006962;28;20042;-48
2024/02/21 06:13:04;;;;;;;5.17;3.23;;;6.60;79.00;;;8.20;57.14;98219.91;5028395;28;20052;-47
2024/02/21 06:15:32;;;;;;;4.60;2.33;;;6.50;78.20;;;8.24;56.97;98223.97;5033499;28;20410;-46
2024/02/21 06:17:59;;;;;;;7.47;2.77;;;6.60;78.00;;;8.21;57.06;98220.75;5032675;28;20049;-46
2024/02/21 06:20:27;;;;;;;5.77;3.00;;;6.60;78.00;;;8.18;56.98;98235.13;5032647;28;20050;-46
2024/02/21 06:22:54;;;;;;;4.73;2.37;;;6.50;77.80;;;8.19;56.72;98241.25;5032948;28;20052;-47
2024/02/21 06:25:22;;;;;;;8.13;2.60;;;6.50;78.10;;;8.15;57.15;98240.69;5032571;28;20038;-47
2024/02/21 06:27:50;;;;;;;4.67;2.40;;;6.50;78.00;;;8.13;57.18;98236.47;5032379;28;20049;-47
2024/02/21 06:30:17;;;;;;;4.67;2.70;;;6.40;78.20;;;8.08;57.04;98229.75;5032390;28;20061;-47
2024/02/21 06:32:45;;;;;;;4.80;2.30;;;6.40;78.10;;;8.09;56.87;98227.94;5032679;28;20148;-46
2024/02/21 06:35:13;;;;;;;9.37;3.40;;;6.40;78.10;;;8.05;57.17;98237.13;5031329;28;20041;-46
2024/02/21 06:37:40;;;;;;;8.83;2.67;;;6.30;78.20;;;8.03;57.30;98231.13;5031904;28;20048;-45
2024/02/21 06:40:08;;;;;;;5.43;3.30;;;6.40;78.50;;;8.04;57.09;98228.31;5014991;28;20046;-46
2024/02/21 06:42:36;;;;;;;9.20;3.13;;;6.30;78.00;;;8.05;56.98;98215.94;5032264;28;20041;-45
2024/02/21 06:45:04;;;;;;;6.13;2.57;;;6.30;77.90;;;8.06;56.96;98220.25;5032389;28;20037;-47
2024/02/21 06:47:32;;;;;;;7.50;3.20;;;6.30;78.30;;;8.05;57.06;98222.06;5031907;28;20052;-46
2024/02/21 06:49:59;;;;;;;7.93;3.03;;;6.30;78.50;;;8.07;56.68;98212.16;5032238;28;20060;-46
2024/02/21 06:52:27;;;;;;;6.20;2.40;;;6.30;78.80;;;8.04;56.97;98215.06;5032071;28;20046;-46
2024/02/21 06:54:55;;;;;;;6.90;2.67;;;6.30;78.70;;;8.05;56.96;98214.09;5032370;28;20056;-46
2024/02/21 06:57:23;;;;;;;5.37;2.77;;;6.30;78.60;;;8.07;56.85;98216.63;5028559;28;20053;-46
2024/02/21 06:59:50;;;;;;;10.07;3.03;;;6.30;77.90;;;8.10;56.84;98219.00;5032877;28;20045;-46
2024/02/21 07:02:18;;;;;;;6.50;2.40;;;6.40;77.70;;;8.09;57.05;98202.25;5032559;28;20053;-46
2024/02/21 07:04:45;;;;;;;5.03;2.10;;;6.40;77.30;;;8.13;57.05;98199.34;5032674;28;20055;-46
2024/02/21 07:07:13;;;;;;;6.53;2.70;;;6.50;77.40;;;8.11;56.56;98191.53;5031558;28;20049;-47
2024/02/21 07:09:41;;;;;;;6.63;2.60;;;6.40;77.40;;;8.09;56.97;98193.47;4990413;28;20045;-45
2024/02/21 07:12:09;;;;;;;10.07;2.73;;;6.40;77.30;;;8.08;56.82;98197.06;5032006;28;20495;-45
2024/02/21 07:14:37;;;;;;;5.33;2.80;;;6.40;77.70;;;8.12;56.80;98195.00;5031639;28;20068;-47
2024/02/21 07:17:04;;;;;;;7.73;3.23;;;6.40;77.60;;;8.15;56.78;98200.06;5013507;28;20046;-48
2024/02/21 07:19:32;;;;;;;7.73;2.53;;;6.40;77.50;;;8.16;56.78;98201.72;5031668;28;20643;-46
2024/02/21 07:22:00;;;;;;;4.97;2.57;;;6.50;77.20;;;8.16;56.72;98202.59;5014372;28;20045;-47
2024/02/21 07:24:27;;;;;;;3.37;2.20;;;6.40;76.80;;;8.19;56.67;98198.81;5031648;28;20045;-47
2024/02/21 07:26:56;;;;;;;6.40;2.40;;;6.50;76.80;;;8.21;56.73;98191.56;5031222;28;20567;-45
2024/02/21 07:29:23;;;;;;;9.00;2.63;;;6.50;77.00;;;8.27;56.89;98181.25;5031349;28;20050;-46
2024/02/21 07:31:51;;;;;;;4.73;2.20;;;6.60;76.90;;;8.31;56.67;98181.00;5031788;28;20209;-46
2024/02/21 07:34:19;;;;;;;6.67;2.63;;;6.60;76.60;;;8.36;56.67;98184.09;5031449;28;20049;-47
2024/02/21 07:36:47;;;;;;;4.70;2.30;;;6.70;76.30;;;8.42;56.61;98175.63;5030981;28;20045;-47
2024/02/21 07:39:15;;;;;;;6.17;2.20;;;6.80;76.00;;;8.42;56.33;98173.81;5014114;28;20517;-46
2024/02/21 07:41:44;;;;;;;8.43;2.17;;;6.70;75.40;;;8.45;56.51;98170.91;5031482;28;20042;-47
2024/02/21 07:44:13;;;;;;;4.30;2.50;;;6.80;75.70;;;8.50;56.33;98157.22;5031511;28;20041;-46
2024/02/21 07:46:40;;;;;;;7.10;2.23;;;6.90;74.60;;;8.56;56.30;98159.31;5030743;28;20053;-48
2024/02/21 07:49:08;;;;;;;5.30;2.60;;;6.90;75.30;;;8.62;56.30;98161.41;5031330;28;20510;-47
2024/02/21 07:51:36;;;;;;;4.77;1.93;;;7.00;74.90;;;8.67;56.12;98150.41;5031207;28;20502;-46
2024/02/21 07:54:04;;;;;;;4.13;2.10;;;7.00;74.50;;;8.71;56.01;98151.00;5031532;28;20041;-47
2024/02/21 07:56:32;;;;;;;3.87;3.23;;;7.10;75.00;;;8.76;56.04;98154.03;5030852;28;20041;-47
2024/02/21 07:59:00;;;;;;;4.97;2.20;;;7.10;74.30;;;8.80;55.72;98150.13;5030161;28;20525;-46
2024/02/21 08:01:27;;;;;;;10.20;2.90;;;7.20;74.20;;;8.81;55.88;98155.31;5031256;28;20053;-48
2024/02/21 08:03:55;;;;;;;9.87;2.77;;;7.20;73.60;;;8.84;55.55;98159.50;5030927;28;20045;-49
2024/02/21 08:06:23;;;;;;;7.07;3.07;;;7.20;73.50;;;8.90;55.40;98169.59;5030761;28;20060;-46
2024/02/21 08:08:51;;;;;;;7.70;3.13;;;7.30;73.80;;;8.93;55.66;98176.44;5013772;28;20425;-47
2024/02/21 08:11:18;;;;;;;3.80;2.80;;;7.30;73.40;;;8.99;55.33;98168.75;5031081;28;20491;-46
2024/02/21 08:13:46;;;;;;;5.63;2.80;;;7.40;73.40;;;9.05;55.29;98168.22;5030721;28;20053;-46
2024/02/21 08:16:14;;;;;;;6.33;2.93;;;7.40;73.40;;;9.10;55.20;98167.78;5012578;28;20071;-48
2024/02/21 08:18:43;;;;;;;8.80;2.70;;;7.50;72.80;;;9.13;55.14;98156.91;5030557;28;20049;-47
2024/02/21 08:21:11;;;;;;;7.63;2.90;;;7.50;73.00;;;9.14;54.79;98155.06;5014251;28;20479;-47
2024/02/21 08:23:39;;;;;;;10.53;3.30;;;7.50;72.50;;;9.17;54.93;98157.44;5013234;28;20399;-46
2024/02/21 08:26:06;;;;;;;4.77;2.40;;;7.50;72.40;;;9.15;54.78;98146.09;5031096;28;20050;-45
2024/02/21 08:28:34;;;;;;;6.67;2.63;;;7.60;71.60;;;9.18;55.08;98151.16;5030096;28;20549;-46
2024/02/21 08:31:02;;;;;;;6.93;2.70;;;7.50;72.00;;;9.23;54.72;98144.44;5030802;28;20054;-46
2024/02/21 08:33:29;;;;;;;9.30;2.70;;;7.60;71.80;;;9.27;54.67;98142.34;5030785;28;20053;-46
2024/02/21 08:35:57;;;;;;;3.93;2.00;;;7.70;71.30;;;9.27;54.45;98129.06;5030793;28;20060;-45
2024/02/21 08:38:25;;;;;;;6.93;2.50;;;7.70;70.30;;;9.25;54.13;98128.38;5030241;28;20041;-46
2024/02/21 08:40:52;;;;;;;6.87;2.17;;;7.70;70.40;;;9.28;54.26;98130.72;5030872;28;20391;-46
2024/02/21 08:43:20;;;;;;;6.93;2.53;;;7.70;70.10;;;9.32;54.40;98124.16;5030835;28;20042;-45
2024/02/21 08:45:48;;;;;;;5.37;2.37;;;7.70;70.70;;;9.35;54.25;98129.19;5030832;28;20049;-47
2024/02/21 08:48:15;;;;;;;7.93;2.53;;;7.80;71.00;;;9.39;54.10;98133.25;5030346;28;20410;-48
2024/02/21 08:50:43;;;;;;;3.60;2.10;;;7.80;70.70;;;9.43;54.19;98123.16;5030363;28;20041;-47
2024/02/21 08:53:11;;;;;;;9.33;2.90;;;7.90;70.80;;;9.48;54.09;98117.41;5030627;28;20045;-47
2024/02/21 08:55:38;;;;;;;4.67;2.40;;;7.90;70.60;;;9.52;54.07;98113.47;5030568;28;20490;-48
2024/02/21 08:58:06;;;;;;;3.97;2.40;;;7.90;71.00;;;9.57;54.14;98114.72;5029913;28;20434;-47
2024/02/21 09:00:34;;;;;;;5.53;2.00;;;8.00;70.70;;;9.64;54.29;98105.22;5033197;28;20059;-47
2024/02/21 09:03:01;;;;;;;8.30;3.17;;;8.10;70.20;;;9.67;53.72;98106.72;5034440;28;20048;-48
2024/02/21 09:05:29;;;;;;;5.13;2.23;;;8.10;70.40;;;9.73;53.93;98100.88;5034409;28;20498;-47
2024/02/21 09:07:56;;;;;;;6.30;3.43;;;8.20;70.50;;;9.77;53.47;98104.91;5034002;28;20042;-48
2024/02/21 09:10:25;;;;;;;7.87;2.40;;;8.20;70.00;;;9.81;53.58;98111.59;5034491;28;20053;-46
2024/02/21 09:12:52;;;;;;;5.83;2.00;;;8.30;70.00;;;9.86;53.63;98109.34;5025925;28;20034;-49
2024/02/21 09:15:20;;;;;;;4.37;2.70;;;8.30;70.60;;;9.92;53.52;98107.91;5034296;28;20042;-46
2024/02/21 09:17:48;;;;;;;3.77;2.10;;;8.40;70.30;;;9.93;53.12;98100.78;5033596;28;20054;-47
2024/02/21 09:20:16;;;;;;;9.80;2.63;;;8.40;69.60;;;9.93;53.37;98095.47;5034229;28;20057;-48
2024/02/21 09:22:44;;;;;;;5.50;2.10;;;8.40;69.10;;;9.93;53.45;98095.47;5033968;28;20043;-47
2024/02/21 09:25:12;;;;;;;7.27;4.10;;;8.40;69.10;;;9.95;53.37;98093.50;5034219;28;20060;-49
2024/02/21 09:27:39;;;;;;;4.40;2.27;;;8.40;69.20;;;9.99;53.05;98092.22;5014902;28;20041;-49
2024/02/21 09:30:07;;;;;;;4.30;2.50;;;8.40;69.50;;;10.04;53.19;98095.25;5034131;28;20410;-45
2024/02/21 09:32:36;;;;;;;4.40;2.50;;;8.50;69.20;;;10.04;52.98;98089.94;5034018;28;20418;-48
2024/02/21 09:35:05;;;;;;;4.50;2.00;;;8.50;68.50;;;10.07;52.99;98081.69;5033994;28;20236;-46
2024/02/21 09:37:33;;;;;;;6.53;2.40;;;8.50;69.20;;;10.11;53.08;98072.41;5032931;28;20494;-49
2024/02/21 09:40:01;;;;;;;5.63;2.10;;;8.60;69.30;;;10.17;53.35;98073.66;5033903;28;20056;-47
2024/02/21 09:42:40;;;;;;;8.97;2.67;;;8.60;69.20;;;10.21;53.26;98075.03;5033388;28;20502;-45
2024/02/21 09:45:22;;;;;;;5.40;2.07;;;8.70;68.70;;;10.23;53.33;98065.91;5027346;28;20422;-46
2024/02/21 09:48:23;;;;;;;3.87;1.90;;;8.70;69.10;;;10.28;52.84;98068.13;5015780;28;20056;-47
2024/02/21 09:50:53;;;;;;;4.30;1.90;;;8.70;68.90;;;10.34;53.24;98066.75;5033501;28;20056;-45
2024/02/21 09:53:23;;;;;;;4.33;2.40;;;8.80;68.50;;;10.36;52.82;98062.94;5016118;28;20042;-46
2024/02/21 09:55:52;;;;;;;10.20;2.90;;;8.80;68.20;;;10.41;52.75;98059.81;5016334;28;20472;-46
2024/02/21 09:58:20;;;;;;;3.60;2.00;;;8.90;68.70;;;10.49;52.67;98059.06;4995638;28;20045;-47
2024/02/21 10:00:48;;;;;;;4.03;2.17;;;9.00;68.40;;;10.56;52.94;98054.81;5033310;28;20052;-47
2024/02/21 10:03:16;;;;;;;8.57;2.30;;;9.00;68.30;;;10.63;52.94;98056.72;5033249;28;20067;-49
2024/02/21 10:05:51;;;;;;;5.77;2.03;;;9.10;68.40;;;10.67;52.02;98054.59;5033368;28;20044;-48
2024/02/21 10:08:20;;;;;;;3.60;2.67;;;9.20;67.20;;;10.70;52.09;98041.00;5032880;28;20422;-49
2024/02/21 10:10:47;;;;;;;5.43;1.80;;;9.30;67.10;;;10.78;52.28;98051.72;5032902;28;20057;-46
2024/02/21 10:13:27;;;;;;;6.57;2.20;;;9.30;66.60;;;10.84;52.06;98034.28;5033190;28;20041;-49
2024/02/21 10:16:06;;;;;;;5.30;2.00;;;9.40;66.00;;;10.90;52.04;98040.84;5033227;28;20413;-50
2024/02/21 10:18:35;;;;;;;7.23;1.87;;;9.50;65.80;;;10.96;52.10;98030.38;5032676;28;20422;-48
2024/02/21 10:21:04;;;;;;;5.33;2.40;;;9.50;66.30;;;11.02;51.88;98032.44;5033146;28;20269;-47
2024/02/21 10:24:01;;;;;;;5.17;2.10;;;9.50;66.30;;;11.07;51.75;98031.13;5015730;28;20049;-50
2024/02/21 10:26:29;;;;;;;4.50;1.93;;;9.60;64.30;;;11.13;51.43;98018.03;5011794;28;20080;-48
2024/02/21 10:28:57;;;;;;;4.93;1.80;;;9.60;65.70;;;11.18;51.58;98021.03;5014974;28;20446;-46
2024/02/21 10:31:27;;;;;;;5.57;1.67;;;9.70;65.20;;;11.23;50.96;98007.28;5015561;28;20037;-49
2024/02/21 10:33:57;;;;;;;3.43;1.60;;;9.80;62.80;;;11.28;50.37;98004.94;5015036;28;20054;-47
2024/02/21 10:36:25;;;;;;;7.47;2.50;;;9.80;63.60;;;11.32;50.88;98003.66;5032762;28;20049;-46
2024/02/21 10:38:54;;;;;;;6.00;3.17;;;9.90;64.20;;;11.35;50.51;98006.00;5032710;28;20041;-47